createdAt,value
2016-05-19T00:00:10.320Z,1004.91
2016-05-19T00:01:10.323Z,1004.88
2016-05-19T00:02:10.309Z,1004.93
2016-05-19T00:03:10.312Z,1004.91
2016-05-19T00:04:10.315Z,1004.94
2016-05-19T00:05:10.301Z,1004.91
2016-05-19T00:06:10.304Z,1004.96
2016-05-19T00:07:10.306Z,1004.93
2016-05-19T00:08:10.309Z,1004.95
2016-05-19T00:09:10.297Z,1004.96
2016-05-19T00:10:10.300Z,1004.96
2016-05-19T00:11:10.303Z,1004.93
2016-05-19T00:12:10.289Z,1004.97
2016-05-19T00:13:10.292Z,1004.94
2016-05-19T00:14:10.295Z,1004.96
2016-05-19T00:15:10.283Z,1004.93
2016-05-19T00:16:10.285Z,1004.96
2016-05-19T00:17:10.288Z,1004.95
2016-05-19T00:18:10.384Z,1004.96
2016-05-19T00:19:10.277Z,1004.94
2016-05-19T00:20:10.280Z,1004.92
2016-05-19T00:21:10.266Z,1004.93
2016-05-19T00:22:10.269Z,1004.93
2016-05-19T00:23:10.272Z,1004.9
2016-05-19T00:24:10.259Z,1004.92
2016-05-19T00:25:10.263Z,1004.87
2016-05-19T00:26:10.265Z,1004.91
2016-05-19T00:27:10.267Z,1004.89
2016-05-19T00:28:10.254Z,1004.91
2016-05-19T00:29:10.257Z,1004.92
2016-05-19T00:30:10.260Z,1004.9
2016-05-19T00:31:10.246Z,1004.9
2016-05-19T00:32:10.249Z,1004.92
2016-05-19T00:33:10.251Z,1004.9
2016-05-19T00:34:10.254Z,1004.92
2016-05-19T00:35:10.242Z,1004.91
2016-05-19T00:36:10.245Z,1004.9
2016-05-19T00:37:10.248Z,1004.88
2016-05-19T00:38:10.234Z,1004.88
2016-05-19T00:39:10.237Z,1004.87
2016-05-19T00:40:10.225Z,1004.85
2016-05-19T00:41:10.227Z,1004.88
2016-05-19T00:42:10.230Z,1004.86
2016-05-19T00:43:10.233Z,1004.82
2016-05-19T00:44:10.235Z,1004.84
2016-05-19T00:45:10.222Z,1004.83
2016-05-19T00:46:10.225Z,1004.84
2016-05-19T00:47:10.211Z,1004.84
2016-05-19T00:48:10.214Z,1004.82
2016-05-19T00:49:10.217Z,1004.82
2016-05-19T00:50:10.219Z,1004.76
2016-05-19T00:51:10.207Z,1004.78
2016-05-19T00:52:10.210Z,1004.78
2016-05-19T00:53:10.196Z,1004.8
2016-05-19T00:54:10.199Z,1004.8
2016-05-19T00:55:10.202Z,1004.77
2016-05-19T00:56:10.205Z,1004.77
2016-05-19T00:57:10.192Z,1004.75
2016-05-19T00:58:10.194Z,1004.76
2016-05-19T00:59:10.196Z,1004.78
2016-05-19T01:00:10.185Z,1004.78
2016-05-19T01:01:10.187Z,1004.74
2016-05-19T01:02:10.189Z,1004.76
2016-05-19T01:03:10.176Z,1004.79
2016-05-19T01:04:10.179Z,1004.77
2016-05-19T01:05:10.182Z,1004.76
2016-05-19T01:06:10.170Z,1004.76
2016-05-19T01:07:10.172Z,1004.75
2016-05-19T01:08:10.175Z,1004.76
2016-05-19T01:09:10.178Z,1004.78
2016-05-19T01:10:10.164Z,1004.77
2016-05-19T01:11:10.167Z,1004.77
2016-05-19T01:12:10.153Z,1004.74
2016-05-19T01:13:10.203Z,1004.79
2016-05-19T01:14:10.159Z,1004.74
2016-05-19T01:15:10.162Z,1004.77
2016-05-19T01:16:10.149Z,1004.73
2016-05-19T01:17:10.152Z,1004.73
2016-05-19T01:18:10.155Z,1004.73
2016-05-19T01:19:10.142Z,1004.75
2016-05-19T01:20:10.144Z,1004.7
2016-05-19T01:21:10.146Z,1004.7
2016-05-19T01:22:10.634Z,1004.68
2016-05-19T01:23:10.387Z,1004.67
2016-05-19T01:25:11.782Z,1004.66
2016-05-19T01:26:10.129Z,1004.64
2016-05-19T01:27:10.132Z,1004.64
2016-05-19T01:28:10.119Z,1004.63
2016-05-19T01:29:10.340Z,1004.62
2016-05-19T01:30:10.124Z,1004.67
2016-05-19T01:31:10.112Z,1004.64
2016-05-19T01:32:10.114Z,1004.64
2016-05-19T01:33:10.117Z,1004.67
2016-05-19T01:34:10.588Z,1004.64
2016-05-19T01:35:10.106Z,1004.68
2016-05-19T01:36:11.718Z,1004.69
2016-05-19T01:37:10.096Z,1004.66
2016-05-19T01:38:10.114Z,1004.65
2016-05-19T01:39:10.102Z,1004.63
2016-05-19T01:40:10.088Z,1004.64
2016-05-19T01:41:10.091Z,1004.62
2016-05-19T01:42:10.094Z,1004.56
2016-05-19T01:43:10.097Z,1004.59
2016-05-19T01:44:10.084Z,1004.56
2016-05-19T01:45:10.087Z,1004.57
2016-05-19T01:46:10.089Z,1004.53
2016-05-19T01:47:10.076Z,1004.5
2016-05-19T01:48:10.078Z,1004.53
2016-05-19T01:49:10.081Z,1004.51
2016-05-19T01:50:10.069Z,1004.56
2016-05-19T01:51:10.072Z,1004.56
2016-05-19T01:52:10.058Z,1004.54
2016-05-19T01:53:10.061Z,1004.55
2016-05-19T01:54:10.064Z,1004.49
2016-05-19T01:55:10.066Z,1004.54
2016-05-19T01:56:10.054Z,1004.54
2016-05-19T01:57:10.057Z,1004.54
2016-05-19T01:58:10.059Z,1004.52
2016-05-19T01:59:10.046Z,1004.52
2016-05-19T02:00:10.049Z,1004.56
2016-05-19T02:01:10.051Z,1004.55
2016-05-19T02:02:10.038Z,1004.53
2016-05-19T02:03:10.040Z,1004.54
2016-05-19T02:04:10.028Z,1004.54
2016-05-19T02:05:10.032Z,1004.56
2016-05-19T02:06:10.034Z,1004.56
2016-05-19T02:07:10.036Z,1004.53
2016-05-19T02:08:10.023Z,1004.52
2016-05-19T02:09:10.026Z,1004.51
2016-05-19T02:10:10.029Z,1004.53
2016-05-19T02:11:10.032Z,1004.51
2016-05-19T02:12:10.018Z,1004.54
2016-05-19T02:13:10.021Z,1004.5
2016-05-19T02:14:10.040Z,1004.54
2016-05-19T02:15:10.011Z,1004.54
2016-05-19T02:16:10.014Z,1004.53
2016-05-19T02:17:10.016Z,1004.53
2016-05-19T02:18:10.019Z,1004.53
2016-05-19T02:19:10.006Z,1004.53
2016-05-19T02:20:09.993Z,1004.51
2016-05-19T02:21:09.996Z,1004.53
2016-05-19T02:22:09.999Z,1004.55
2016-05-19T02:23:10.001Z,1004.53
2016-05-19T02:24:10.035Z,1004.52
2016-05-19T02:25:09.983Z,1004.52
2016-05-19T02:26:09.986Z,1004.5
2016-05-19T02:27:09.988Z,1004.5
2016-05-19T02:28:09.975Z,1004.5
2016-05-19T02:29:09.978Z,1004.47
2016-05-19T02:30:09.981Z,1004.51
2016-05-19T02:31:09.968Z,1004.51
2016-05-19T02:32:09.971Z,1004.53
2016-05-19T02:33:10.770Z,1004.52
2016-05-19T02:34:09.976Z,1004.54
2016-05-19T02:35:10.104Z,1004.57
2016-05-19T02:36:09.966Z,1004.6
2016-05-19T02:37:09.953Z,1004.57
2016-05-19T02:38:09.956Z,1004.56
2016-05-19T02:39:09.959Z,1004.54
2016-05-19T02:40:09.945Z,1004.52
2016-05-19T02:41:09.976Z,1004.56
2016-05-19T02:42:10.006Z,1004.56
2016-05-19T02:43:10.052Z,1004.54
2016-05-19T02:44:10.271Z,1004.56
2016-05-19T02:45:10.411Z,1004.57
2016-05-19T02:46:10.157Z,1004.53
2016-05-19T02:47:10.738Z,1004.54
2016-05-19T02:48:10.990Z,1004.53
2016-05-19T02:49:10.196Z,1004.55
2016-05-19T02:50:10.214Z,1004.52
2016-05-19T02:51:10.225Z,1004.54
2016-05-19T02:52:10.218Z,1004.52
2016-05-19T02:53:10.227Z,1004.55
2016-05-19T02:54:10.938Z,1004.52
2016-05-19T02:55:10.228Z,1004.51
2016-05-19T02:56:10.234Z,1004.52
2016-05-19T02:57:10.489Z,1004.52
2016-05-19T02:58:10.227Z,1004.54
2016-05-19T02:59:10.232Z,1004.54
2016-05-19T03:00:10.237Z,1004.54
2016-05-19T03:01:10.272Z,1004.57
2016-05-19T03:02:10.229Z,1004.52
2016-05-19T03:03:10.232Z,1004.54
2016-05-19T03:04:10.220Z,1004.52
2016-05-19T03:05:10.223Z,1004.49
2016-05-19T03:06:10.227Z,1004.51
2016-05-19T03:07:10.214Z,1004.51
2016-05-19T03:08:10.216Z,1004.54
2016-05-19T03:09:10.220Z,1004.54
2016-05-19T03:10:10.207Z,1004.55
2016-05-19T03:11:10.210Z,1004.58
2016-05-19T03:12:10.197Z,1004.57
2016-05-19T03:13:10.200Z,1004.57
2016-05-19T03:14:10.203Z,1004.53
2016-05-19T03:15:10.206Z,1004.57
2016-05-19T03:16:10.192Z,1004.6
2016-05-19T03:17:10.195Z,1004.55
2016-05-19T03:18:10.183Z,1004.6
2016-05-19T03:19:10.185Z,1004.56
2016-05-19T03:20:10.188Z,1004.57
2016-05-19T03:21:10.175Z,1004.55
2016-05-19T03:22:10.177Z,1004.57
2016-05-19T03:23:10.399Z,1004.57
2016-05-19T03:24:10.167Z,1004.61
2016-05-19T03:25:10.170Z,1004.6
2016-05-19T03:26:10.173Z,1004.61
2016-05-19T03:27:10.175Z,1004.61
2016-05-19T03:28:10.162Z,1004.6
2016-05-19T03:29:10.165Z,1004.63
2016-05-19T03:30:10.152Z,1004.62
2016-05-19T03:31:10.154Z,1004.68
2016-05-19T03:32:10.157Z,1004.63
2016-05-19T03:33:10.145Z,1004.65
2016-05-19T03:34:10.148Z,1004.69
2016-05-19T03:35:10.151Z,1004.68
2016-05-19T03:36:10.137Z,1004.71
2016-05-19T03:37:10.140Z,1004.7
2016-05-19T03:38:10.142Z,1004.73
2016-05-19T03:39:10.144Z,1004.73
2016-05-19T03:40:10.132Z,1004.7
2016-05-19T03:41:10.134Z,1004.72
2016-05-19T03:42:10.122Z,1004.72
2016-05-19T03:43:10.124Z,1004.72
2016-05-19T03:44:10.127Z,1004.73
2016-05-19T03:45:10.114Z,1004.72
2016-05-19T03:46:10.116Z,1004.75
2016-05-19T03:47:10.119Z,1004.74
2016-05-19T03:48:10.107Z,1004.76
2016-05-19T03:49:10.110Z,1004.77
2016-05-19T03:50:10.113Z,1004.73
2016-05-19T03:51:10.099Z,1004.72
2016-05-19T03:52:10.102Z,1004.73
2016-05-19T03:53:10.105Z,1004.77
2016-05-19T03:54:10.092Z,1004.76
2016-05-19T03:55:10.094Z,1004.76
2016-05-19T03:58:10.493Z,1004.75
2016-05-19T04:03:10.068Z,1004.73
2016-05-19T04:04:10.071Z,1004.76
2016-05-19T04:05:10.090Z,1004.73
2016-05-19T04:06:10.061Z,1004.77
2016-05-19T04:07:10.064Z,1004.75
2016-05-19T04:08:10.067Z,1004.72
2016-05-19T04:09:10.070Z,1004.75
2016-05-19T04:10:10.057Z,1004.77
2016-05-19T04:11:10.059Z,1004.77
2016-05-19T04:12:10.062Z,1004.73
2016-05-19T04:13:10.050Z,1004.76
2016-05-19T04:14:11.598Z,1004.81
2016-05-19T04:15:10.616Z,1004.76
2016-05-19T04:16:10.041Z,1004.76
2016-05-19T04:17:10.044Z,1004.78
2016-05-19T04:18:10.031Z,1004.8
2016-05-19T04:19:10.049Z,1004.83
2016-05-19T04:20:10.036Z,1004.77
2016-05-19T04:21:10.038Z,1004.83
2016-05-19T04:22:10.026Z,1004.81
2016-05-19T04:23:10.029Z,1004.81
2016-05-19T04:24:10.032Z,1004.82
2016-05-19T04:25:10.019Z,1004.85
2016-05-19T04:26:10.021Z,1004.83
2016-05-19T04:27:10.024Z,1004.85
2016-05-19T04:28:10.011Z,1004.84
2016-05-19T04:29:10.014Z,1004.81
2016-05-19T04:30:10.016Z,1004.84
2016-05-19T04:31:10.207Z,1004.81
2016-05-19T04:32:10.007Z,1004.83
2016-05-19T04:44:09.992Z,1004.92
2016-05-19T04:45:09.978Z,1004.96
2016-05-19T04:46:09.981Z,1004.96
2016-05-19T04:47:09.968Z,1004.94
2016-05-19T04:48:09.972Z,1004.93
2016-05-19T04:53:11.578Z,1004.99
2016-05-19T04:55:09.959Z,1005.03
2016-05-19T04:56:09.961Z,1005.02
2016-05-19T04:57:09.948Z,1005.03
2016-05-19T04:58:09.952Z,1005.03
2016-05-19T04:59:09.954Z,1005.02
2016-05-19T05:00:09.957Z,1005.06
2016-05-19T05:01:09.944Z,1005.06
2016-05-19T05:02:09.946Z,1005.07
2016-05-19T05:03:09.949Z,1005.06
2016-05-19T05:04:09.951Z,1005.08
2016-05-19T05:05:09.939Z,1005.06
2016-05-19T05:06:09.942Z,1005.08
2016-05-19T05:07:09.945Z,1005.1
2016-05-19T05:08:09.931Z,1005.09
2016-05-19T05:09:10.231Z,1005.13
2016-05-19T05:10:09.937Z,1005.11
2016-05-19T05:11:10.689Z,1005.12
2016-05-19T05:12:09.926Z,1005.14
2016-05-19T05:38:09.903Z,1005.43
2016-05-19T05:39:09.906Z,1005.44
2016-05-19T05:40:09.893Z,1005.43
2016-05-19T05:41:09.895Z,1005.48
2016-05-19T05:42:09.898Z,1005.49
2016-05-19T05:43:09.901Z,1005.54
2016-05-19T05:44:09.888Z,1005.53
2016-05-19T05:45:09.890Z,1005.56
2016-05-19T05:46:09.893Z,1005.55
2016-05-19T05:47:09.895Z,1005.6
2016-05-19T05:48:09.898Z,1005.61
2016-05-19T05:49:09.885Z,1005.6
2016-05-19T05:50:09.889Z,1005.56
2016-05-19T05:51:09.891Z,1005.57
2016-05-19T05:52:09.894Z,1005.6
2016-05-19T05:53:09.881Z,1005.57
2016-05-19T05:54:09.883Z,1005.56
2016-05-19T05:55:09.886Z,1005.55
2016-05-19T05:56:09.889Z,1005.55
2016-05-19T05:57:09.891Z,1005.57
2016-05-19T05:58:09.894Z,1005.57
2016-05-19T05:59:09.880Z,1005.6
2016-05-19T06:00:09.883Z,1005.6
2016-05-19T06:01:09.886Z,1005.61
2016-05-19T06:02:09.889Z,1005.62
2016-05-19T06:03:09.877Z,1005.66
2016-05-19T06:04:09.879Z,1005.66
2016-05-19T06:05:09.882Z,1005.7
2016-05-19T06:06:09.885Z,1005.71
2016-05-19T06:07:09.887Z,1005.71
2016-05-19T06:08:09.874Z,1005.69
2016-05-19T06:09:09.876Z,1005.71
2016-05-19T06:10:09.879Z,1005.72
2016-05-19T06:11:09.882Z,1005.73
2016-05-19T06:12:09.884Z,1005.74
2016-05-19T06:13:09.887Z,1005.78
2016-05-19T06:14:09.875Z,1005.79
2016-05-19T06:15:09.878Z,1005.8
2016-05-19T06:16:09.881Z,1005.79
2016-05-19T06:17:09.883Z,1005.81
2016-05-19T06:18:09.886Z,1005.8
2016-05-19T06:19:09.872Z,1005.82
2016-05-19T06:20:09.875Z,1005.84
2016-05-19T06:21:09.877Z,1005.86
2016-05-19T06:22:09.881Z,1005.9
2016-05-19T06:23:09.883Z,1005.89
2016-05-19T06:24:09.886Z,1005.91
2016-05-19T06:25:09.889Z,1005.9
2016-05-19T06:26:09.892Z,1005.97
2016-05-19T06:27:09.878Z,1005.97
2016-05-19T06:28:09.927Z,1005.98
2016-05-19T06:29:09.883Z,1005.97
2016-05-19T06:30:09.886Z,1005.92
2016-05-19T06:32:09.892Z,1006.04
2016-05-19T06:33:09.894Z,1006.04
2016-05-19T06:34:09.882Z,1006.08
2016-05-19T06:35:09.885Z,1006.08
2016-05-19T06:36:09.887Z,1006.11
2016-05-19T06:37:09.890Z,1006.1
2016-05-19T06:38:09.892Z,1006.11
2016-05-19T06:39:09.895Z,1006.18
2016-05-19T06:40:10.663Z,1006.15
2016-05-19T06:41:11.229Z,1006.18
2016-05-19T06:42:09.903Z,1006.19
2016-05-19T06:43:09.906Z,1006.21
2016-05-19T06:44:10.081Z,1006.24
2016-05-19T06:45:09.912Z,1006.25
2016-05-19T06:46:09.914Z,1006.29
2016-05-19T06:47:10.198Z,1006.3
2016-05-19T06:48:09.904Z,1006.36
2016-05-19T06:49:09.906Z,1006.4
2016-05-19T06:50:09.908Z,1006.42
2016-05-19T06:51:11.286Z,1006.43
2016-05-19T06:52:09.914Z,1006.48
2016-05-19T06:53:09.917Z,1006.48
2016-05-19T06:54:09.920Z,1006.53
2016-05-19T06:55:09.922Z,1006.55
2016-05-19T06:56:09.925Z,1006.52
2016-05-19T06:57:09.944Z,1006.49
2016-05-19T06:58:09.931Z,1006.57
2016-05-19T06:59:09.932Z,1006.57
2016-05-19T07:00:09.936Z,1006.59
2016-05-19T07:01:09.938Z,1006.66
2016-05-19T07:02:09.941Z,1006.65
2016-05-19T07:03:09.943Z,1006.68
2016-05-19T07:04:09.946Z,1006.68
2016-05-19T07:05:09.949Z,1006.7
2016-05-19T07:06:09.952Z,1006.7
2016-05-19T07:07:09.970Z,1006.77
2016-05-19T07:08:09.973Z,1006.78
2016-05-19T07:09:09.976Z,1006.85
2016-05-19T07:10:09.978Z,1006.91
2016-05-19T07:11:09.981Z,1006.92
2016-05-19T07:12:09.984Z,1006.87
2016-05-19T07:13:09.986Z,1006.93
2016-05-19T07:14:09.989Z,1006.94
2016-05-19T07:15:09.992Z,1006.99
2016-05-19T07:16:10.009Z,1007.01
2016-05-19T07:17:10.012Z,1007.04
2016-05-19T07:18:10.015Z,1007.04
2016-05-19T07:19:10.018Z,1007.11
2016-05-19T07:20:10.020Z,1007.09
2016-05-19T07:21:10.023Z,1007.12
2016-05-19T07:22:10.042Z,1007.18
2016-05-19T07:23:10.060Z,1007.1
2016-05-19T07:24:10.047Z,1007.18
2016-05-19T07:25:10.050Z,1007.21
2016-05-19T07:26:10.053Z,1007.16
2016-05-19T07:27:10.071Z,1007.22
2016-05-19T07:28:10.074Z,1007.33
2016-05-19T07:29:10.077Z,1007.55
2016-05-19T07:30:10.095Z,1007.36
2016-05-19T07:31:10.097Z,1007.27
2016-05-19T07:32:10.100Z,1007.22
2016-05-19T07:33:10.118Z,1007.29
2016-05-19T07:34:10.121Z,1007.31
2016-05-19T07:35:10.124Z,1007.25
2016-05-19T07:36:10.142Z,1007.23
2016-05-19T07:37:10.144Z,1007.28
2016-05-19T07:38:10.163Z,1007.36
2016-05-19T07:39:10.165Z,1007.33
2016-05-19T07:40:10.168Z,1007.29
2016-05-19T07:41:10.187Z,1007.31
2016-05-19T07:42:10.189Z,1007.35
2016-05-19T07:43:10.207Z,1007.38
2016-05-19T07:44:10.210Z,1007.46
2016-05-19T07:45:10.228Z,1007.45
2016-05-19T07:46:11.076Z,1007.74
2016-05-19T07:48:10.252Z,1007.55
2016-05-19T07:49:10.256Z,1007.44
2016-05-19T07:50:10.274Z,1007.51
2016-05-19T07:51:10.276Z,1007.61
2016-05-19T07:52:10.295Z,1007.6
2016-05-19T07:53:10.297Z,1007.66
2016-05-19T07:54:10.315Z,1007.62
2016-05-19T07:55:11.427Z,1007.66
2016-05-19T07:56:10.336Z,1007.5
2016-05-19T07:57:10.355Z,1007.53
2016-05-19T07:58:10.373Z,1007.45
2016-05-19T07:59:10.625Z,1007.48
2016-05-19T08:00:10.394Z,1007.48
2016-05-19T08:01:10.397Z,1007.57
2016-05-19T08:02:10.415Z,1007.65
2016-05-19T08:03:10.418Z,1007.61
2016-05-19T08:04:10.435Z,1007.56
2016-05-19T08:05:10.454Z,1007.55
2016-05-19T08:06:10.722Z,1007.45
2016-05-19T08:07:10.475Z,1007.56
2016-05-19T08:08:10.478Z,1007.48
2016-05-19T08:09:12.481Z,1007.44
2016-05-19T08:10:10.765Z,1007.57
2016-05-19T08:11:11.096Z,1007.6
2016-05-19T08:12:10.551Z,1007.81
2016-05-19T08:13:10.554Z,1007.59
2016-05-19T08:14:10.557Z,1007.64
2016-05-19T08:15:10.575Z,1007.57
2016-05-19T08:16:10.593Z,1007.58
2016-05-19T08:17:10.596Z,1007.53
2016-05-19T08:18:10.615Z,1007.62
2016-05-19T08:19:10.632Z,1007.6
2016-05-19T08:20:10.651Z,1007.56
2016-05-19T08:21:10.669Z,1007.66
2016-05-19T08:22:10.672Z,1007.66
2016-05-19T08:23:10.956Z,1007.63
2016-05-19T08:24:10.708Z,1007.51
2016-05-19T08:25:10.711Z,1007.45
2016-05-19T08:26:10.729Z,1007.55
2016-05-19T08:27:10.747Z,1007.64
2016-05-19T08:28:10.750Z,1007.67
2016-05-19T08:29:10.769Z,1007.75
2016-05-19T08:30:10.787Z,1007.78
2016-05-19T08:31:10.805Z,1007.69
2016-05-19T08:32:10.824Z,1007.52
2016-05-19T08:33:10.827Z,1007.5
2016-05-19T08:34:10.844Z,1007.47
2016-05-19T08:35:10.864Z,1007.48
2016-05-19T08:36:10.866Z,1007.51
2016-05-19T08:37:10.885Z,1007.44
2016-05-19T08:38:10.902Z,1007.51
2016-05-19T08:39:10.921Z,1007.65
2016-05-19T08:40:10.938Z,1007.7
2016-05-19T08:41:10.941Z,1007.66
2016-05-19T08:42:10.960Z,1007.61
2016-05-19T08:43:10.979Z,1007.53
2016-05-19T08:44:10.997Z,1007.34
2016-05-19T08:45:11.015Z,1007.23
2016-05-19T08:46:11.018Z,1007.23
2016-05-19T08:47:11.036Z,1007.13
2016-05-19T08:48:11.054Z,1007.11
2016-05-19T08:49:11.072Z,1007.11
2016-05-19T08:50:11.090Z,1007.07
2016-05-19T08:51:11.093Z,1007.02
2016-05-19T08:52:11.112Z,1007
2016-05-19T08:53:11.114Z,1006.99
2016-05-19T08:54:11.773Z,1006.99
2016-05-19T08:55:11.198Z,1006.96
2016-05-19T08:56:11.170Z,1006.95
2016-05-19T08:57:11.172Z,1006.89
2016-05-19T08:58:11.191Z,1006.88
2016-05-19T08:59:11.193Z,1006.89
2016-05-19T09:00:11.211Z,1006.86
2016-05-19T09:01:11.230Z,1006.89
2016-05-19T09:02:11.233Z,1006.9
2016-05-19T09:03:11.251Z,1006.88
2016-05-19T09:04:11.269Z,1006.87
2016-05-19T09:05:11.272Z,1006.87
2016-05-19T09:06:11.275Z,1006.81
2016-05-19T09:07:11.293Z,1006.84
2016-05-19T09:08:11.295Z,1006.81
2016-05-19T09:09:11.313Z,1006.86
2016-05-19T09:10:11.316Z,1006.84
2016-05-19T09:11:11.351Z,1006.86
2016-05-19T09:12:11.337Z,1006.84
2016-05-19T09:13:11.357Z,1006.79
2016-05-19T09:14:11.359Z,1006.83
2016-05-19T09:15:11.376Z,1006.79
2016-05-19T09:16:11.380Z,1006.82
2016-05-19T09:17:11.382Z,1006.75
2016-05-19T09:18:12.166Z,1006.77
2016-05-19T09:19:11.731Z,1006.75
2016-05-19T09:20:11.422Z,1006.81
2016-05-19T09:21:11.424Z,1006.76
2016-05-19T09:22:11.426Z,1006.82
2016-05-19T09:23:11.445Z,1006.77
2016-05-19T09:24:11.542Z,1006.79
2016-05-19T09:25:11.498Z,1006.79
2016-05-19T09:26:11.453Z,1006.75
2016-05-19T09:27:13.190Z,1006.87
2016-05-19T09:28:11.474Z,1006.93
2016-05-19T09:29:11.477Z,1006.9
2016-05-19T09:30:11.480Z,1006.87
2016-05-19T09:31:11.936Z,1006.89
2016-05-19T09:32:11.501Z,1006.85
2016-05-19T09:33:11.503Z,1006.85
2016-05-19T09:34:11.506Z,1006.86
2016-05-19T09:35:11.524Z,1006.91
2016-05-19T09:36:11.527Z,1006.89
2016-05-19T09:37:11.529Z,1006.82
2016-05-19T09:38:11.533Z,1006.88
2016-05-19T09:39:11.536Z,1006.85
2016-05-19T09:40:11.554Z,1006.84
2016-05-19T09:41:11.557Z,1006.86
2016-05-19T09:42:11.559Z,1006.88
2016-05-19T09:43:11.562Z,1006.84
2016-05-19T09:44:11.565Z,1006.86
2016-05-19T09:45:11.582Z,1006.85
2016-05-19T09:46:11.585Z,1006.88
2016-05-19T09:47:11.588Z,1006.86
2016-05-19T09:48:11.591Z,1006.86
2016-05-19T09:49:11.609Z,1006.88
2016-05-19T09:50:11.612Z,1006.94
2016-05-19T09:51:11.615Z,1006.94
2016-05-19T09:52:11.617Z,1006.94
2016-05-19T09:53:11.635Z,1006.97
2016-05-19T09:54:12.248Z,1006.93
2016-05-19T09:55:11.640Z,1006.89
2016-05-19T09:56:11.643Z,1006.95
2016-05-19T09:57:11.646Z,1006.96
2016-05-19T09:58:11.664Z,1006.98
2016-05-19T09:59:11.667Z,1007.01
2016-05-19T10:00:11.670Z,1006.99
2016-05-19T10:01:11.672Z,1006.99
2016-05-19T10:02:11.691Z,1006.99
2016-05-19T10:03:11.694Z,1006.94
2016-05-19T10:04:11.697Z,1006.99
2016-05-19T10:05:11.699Z,1007.03
2016-05-19T10:06:11.717Z,1007.03
2016-05-19T10:07:11.720Z,1007.16
2016-05-19T10:08:11.723Z,1007.12
2016-05-19T10:09:11.866Z,1007.14
2016-05-19T10:10:11.744Z,1007.2
2016-05-19T10:11:11.746Z,1007.25
2016-05-19T10:12:11.749Z,1007.15
2016-05-19T10:13:11.752Z,1007.17
2016-05-19T10:14:11.755Z,1007.13
2016-05-19T10:15:11.773Z,1007.15
2016-05-19T10:16:11.776Z,1007.15
2016-05-19T10:17:11.779Z,1007.13
2016-05-19T10:18:11.796Z,1007.22
2016-05-19T10:19:11.799Z,1007.19
2016-05-19T10:20:11.802Z,1007.14
2016-05-19T10:21:11.805Z,1007.11
2016-05-19T10:22:11.823Z,1007.16
2016-05-19T10:23:11.826Z,1007.19
2016-05-19T10:24:12.062Z,1007.1
2016-05-19T10:25:11.831Z,1007.21
2016-05-19T10:26:11.834Z,1007.21
2016-05-19T10:27:11.852Z,1007.24
2016-05-19T10:29:11.857Z,1007.26
2016-05-19T10:30:11.876Z,1007.29
2016-05-19T10:31:11.878Z,1007.26
2016-05-19T10:32:11.881Z,1007.39
2016-05-19T10:33:13.087Z,1007.39
2016-05-19T10:34:11.996Z,1007.29
2016-05-19T10:35:11.905Z,1007.28
2016-05-19T10:36:11.970Z,1007.29
2016-05-19T10:37:11.910Z,1007.35
2016-05-19T10:38:12.725Z,1007.34
2016-05-19T10:39:13.244Z,1007.3
2016-05-19T10:40:11.934Z,1007.31
2016-05-19T10:41:11.936Z,1007.34
2016-05-19T10:42:11.955Z,1007.35
2016-05-19T10:43:11.958Z,1007.27
2016-05-19T10:44:11.960Z,1007.25
2016-05-19T10:45:11.963Z,1007.33
2016-05-19T10:46:11.982Z,1007.32
2016-05-19T10:47:11.985Z,1007.33
2016-05-19T10:48:12.002Z,1007.32
2016-05-19T10:49:12.005Z,1007.4
2016-05-19T10:50:12.007Z,1007.38
2016-05-19T10:51:12.010Z,1007.41
2016-05-19T10:52:12.013Z,1007.43
2016-05-19T10:53:12.266Z,1007.45
2016-05-19T10:54:12.034Z,1007.42
2016-05-19T10:55:12.037Z,1007.45
2016-05-19T10:56:12.040Z,1007.41
2016-05-19T10:57:12.057Z,1007.43
2016-05-19T10:58:12.059Z,1007.37
2016-05-19T10:59:12.063Z,1007.39
2016-05-19T11:00:12.082Z,1007.46
2016-05-19T11:01:12.084Z,1007.42
2016-05-19T11:02:12.087Z,1007.42
2016-05-19T11:03:12.089Z,1007.44
2016-05-19T11:04:12.108Z,1007.43
2016-05-19T11:05:12.110Z,1007.5
2016-05-19T11:06:12.113Z,1007.5
2016-05-19T11:07:12.116Z,1007.54
2016-05-19T11:08:12.134Z,1007.54
2016-05-19T11:09:12.137Z,1007.43
2016-05-19T11:10:12.139Z,1007.44
2016-05-19T11:11:12.141Z,1007.59
2016-05-19T11:12:12.160Z,1007.55
2016-05-19T11:13:12.164Z,1007.59
2016-05-19T11:14:12.166Z,1007.6
2016-05-19T11:15:12.185Z,1007.59
2016-05-19T11:16:12.187Z,1007.61
2016-05-19T11:17:12.190Z,1007.61
2016-05-19T11:18:12.192Z,1007.56
2016-05-19T11:19:12.210Z,1007.57
2016-05-19T11:20:12.213Z,1007.55
2016-05-19T11:21:12.216Z,1007.52
2016-05-19T11:22:12.234Z,1007.52
2016-05-19T11:23:12.237Z,1007.58
2016-05-19T11:24:12.240Z,1007.54
2016-05-19T11:25:12.243Z,1007.57
2016-05-19T11:26:12.260Z,1007.58
2016-05-19T11:27:12.263Z,1007.63
2016-05-19T11:28:12.266Z,1007.55
2016-05-19T11:29:12.285Z,1007.51
2016-05-19T11:30:12.303Z,1007.51
2016-05-19T11:31:12.306Z,1007.6
2016-05-19T11:32:12.308Z,1007.55
2016-05-19T11:33:12.311Z,1007.54
2016-05-19T11:34:12.313Z,1007.54
2016-05-19T11:35:12.331Z,1007.53
2016-05-19T11:36:12.334Z,1007.57
2016-05-19T11:37:12.337Z,1007.6
2016-05-19T11:38:12.355Z,1007.63
2016-05-19T11:39:12.358Z,1007.62
2016-05-19T11:40:12.360Z,1007.55
2016-05-19T11:41:12.379Z,1007.52
2016-05-19T11:42:12.383Z,1007.55
2016-05-19T11:43:13.385Z,1007.54
2016-05-19T11:44:12.402Z,1007.57
2016-05-19T11:45:12.405Z,1007.54
2016-05-19T11:46:12.611Z,1007.54
2016-05-19T11:47:12.449Z,1007.6
2016-05-19T11:48:12.507Z,1007.54
2016-05-19T11:49:12.550Z,1007.52
2016-05-19T11:50:12.609Z,1007.53
2016-05-19T11:51:13.042Z,1007.57
2016-05-19T11:52:12.671Z,1007.57
2016-05-19T11:53:12.704Z,1007.52
2016-05-19T11:54:12.721Z,1007.49
2016-05-19T11:55:12.738Z,1007.53
2016-05-19T11:56:13.568Z,1007.52
2016-05-19T11:57:13.764Z,1007.48
2016-05-19T11:58:13.319Z,1007.44
2016-05-19T11:59:12.811Z,1007.47
2016-05-19T12:00:12.836Z,1007.44
2016-05-19T12:01:12.828Z,1007.47
2016-05-19T12:02:12.849Z,1007.53
2016-05-19T12:03:12.962Z,1007.49
2016-05-19T12:04:12.857Z,1007.52
2016-05-19T12:05:12.862Z,1007.5
2016-05-19T12:06:12.883Z,1007.54
2016-05-19T12:07:12.886Z,1007.57
2016-05-19T12:08:12.890Z,1007.65
2016-05-19T12:09:13.439Z,1007.63
2016-05-19T12:10:12.911Z,1007.62
2016-05-19T12:11:12.931Z,1007.6
2016-05-19T12:12:12.934Z,1007.58
2016-05-19T12:13:12.937Z,1007.54
2016-05-19T12:14:12.955Z,1007.56
2016-05-19T12:15:12.990Z,1007.57
2016-05-19T12:16:12.962Z,1007.55
2016-05-19T12:17:12.964Z,1007.52
2016-05-19T12:18:12.983Z,1007.44
2016-05-19T12:19:12.986Z,1007.46
2016-05-19T12:20:13.019Z,1007.48
2016-05-19T12:21:13.006Z,1007.45
2016-05-19T12:22:13.009Z,1007.53
2016-05-19T12:23:13.012Z,1007.5
2016-05-19T12:24:13.030Z,1007.49
2016-05-19T12:25:13.032Z,1007.47
2016-05-19T12:26:13.035Z,1007.52
2016-05-19T12:27:13.054Z,1007.53
2016-05-19T12:28:13.057Z,1007.56
2016-05-19T12:29:13.059Z,1007.53
2016-05-19T12:30:13.078Z,1007.61
2016-05-19T12:31:13.081Z,1007.59
2016-05-19T12:32:13.084Z,1007.52
2016-05-19T12:33:13.101Z,1007.51
2016-05-19T12:34:13.104Z,1007.52
2016-05-19T12:35:13.106Z,1007.54
2016-05-19T12:36:13.125Z,1007.53
2016-05-19T12:37:13.128Z,1007.56
2016-05-19T12:38:13.131Z,1007.54
2016-05-19T12:39:13.148Z,1007.52
2016-05-19T12:40:13.151Z,1007.48
2016-05-19T12:41:13.154Z,1007.48
2016-05-19T12:42:13.157Z,1007.52
2016-05-19T12:43:13.175Z,1007.54
2016-05-19T12:44:13.178Z,1007.5
2016-05-19T12:45:13.180Z,1007.49
2016-05-19T12:46:13.183Z,1007.5
2016-05-19T12:47:13.202Z,1007.5
2016-05-19T12:48:13.204Z,1007.53
2016-05-19T12:49:13.207Z,1007.6
2016-05-19T12:50:13.225Z,1007.6
2016-05-19T12:51:13.228Z,1007.6
2016-05-19T12:52:13.246Z,1007.64
2016-05-19T12:53:13.249Z,1007.57
2016-05-19T12:54:13.252Z,1007.59
2016-05-19T12:55:13.254Z,1007.62
2016-05-19T12:56:13.257Z,1007.63
2016-05-19T12:57:13.260Z,1007.59
2016-05-19T12:58:13.278Z,1007.53